createdAt,value
2018-06-18T00:01:10.024Z,17.74
2018-06-18T00:03:39.894Z,17.74
2018-06-18T00:06:09.782Z,17.75
2018-06-18T00:08:39.565Z,17.73
2018-06-18T00:11:09.393Z,17.73
2018-06-18T00:13:39.175Z,17.70
2018-06-18T00:16:09.023Z,17.68
2018-06-18T00:18:38.805Z,17.66
2018-06-18T00:21:08.676Z,17.67
2018-06-18T00:23:38.396Z,17.77
2018-06-18T00:26:07.926Z,17.90
2018-06-18T00:28:37.672Z,17.91
2018-06-18T00:31:07.936Z,17.99
2018-06-18T00:33:37.712Z,17.95
2018-06-18T00:36:07.458Z,18.04
2018-06-18T00:38:37.362Z,18.02
2018-06-18T00:41:07.230Z,18.07
2018-06-18T00:43:37.074Z,18.02
2018-06-18T00:46:06.844Z,17.91
2018-06-18T00:48:36.674Z,17.84
2018-06-18T00:51:06.644Z,17.77
2018-06-18T00:53:36.454Z,17.70
2018-06-18T00:56:17.109Z,17.63
2018-06-18T00:58:46.927Z,17.65
2018-06-18T01:01:16.796Z,17.66
2018-06-18T01:03:46.614Z,17.60
2018-06-18T01:06:16.414Z,17.52
2018-06-18T01:08:46.234Z,17.55
2018-06-18T01:11:16.018Z,17.49
2018-06-18T01:13:45.850Z,17.41
2018-06-18T01:16:15.642Z,17.48
2018-06-18T01:18:45.432Z,17.77
2018-06-18T01:21:15.188Z,17.77
2018-06-18T01:24:59.452Z,17.77
2018-06-18T01:27:29.242Z,17.63
2018-06-18T01:29:59.016Z,17.54
2018-06-18T01:32:28.957Z,17.59
2018-06-18T01:34:58.717Z,17.54
2018-06-18T01:37:28.617Z,17.45
2018-06-18T01:39:58.405Z,17.39
2018-06-18T01:42:28.213Z,17.29
2018-06-18T01:44:57.975Z,17.25
2018-06-18T01:47:27.733Z,17.25
2018-06-18T01:49:57.557Z,17.29
2018-06-18T01:52:27.255Z,17.23
2018-06-18T01:54:57.111Z,17.15
2018-06-18T01:57:26.870Z,17.06
2018-06-18T01:59:56.624Z,17.02
2018-06-18T02:02:28.805Z,17.00
2018-06-18T02:05:01.943Z,17.04
2018-06-18T02:07:32.592Z,17.00
2018-06-18T02:10:03.208Z,16.96
2018-06-18T02:12:33.064Z,16.88
2018-06-18T02:15:03.313Z,16.86
2018-06-18T02:17:33.145Z,16.88
2018-06-18T02:20:04.466Z,16.87
2018-06-18T02:22:36.409Z,16.95
2018-06-18T02:25:07.295Z,16.94
2018-06-18T02:27:44.345Z,16.94
2018-06-18T02:30:21.649Z,16.91
2018-06-18T02:32:59.890Z,16.86
2018-06-18T02:35:35.098Z,16.89
2018-06-18T02:38:10.917Z,16.84
2018-06-18T02:40:46.242Z,16.79
2018-06-18T02:43:17.994Z,16.81
2018-06-18T02:45:47.890Z,16.80
2018-06-18T02:48:17.849Z,16.76
2018-06-18T02:50:47.780Z,16.70
2018-06-18T02:53:17.582Z,16.67
2018-06-18T02:55:50.438Z,16.64
2018-06-18T02:58:20.166Z,16.57
2018-06-18T03:00:50.160Z,16.60
2018-06-18T03:03:19.966Z,16.58
2018-06-18T03:05:50.042Z,16.58
2018-06-18T03:08:19.929Z,16.47
2018-06-18T03:10:49.674Z,16.37
2018-06-18T03:13:19.561Z,16.22
2018-06-18T03:15:49.289Z,16.07
2018-06-18T03:18:24.326Z,15.91
2018-06-18T03:20:59.354Z,15.93
2018-06-18T03:23:34.310Z,15.87
2018-06-18T03:26:09.656Z,15.90
2018-06-18T03:28:44.705Z,15.87
2018-06-18T03:31:14.934Z,15.83
2018-06-18T03:33:45.361Z,15.78
2018-06-18T03:36:16.097Z,15.77
2018-06-18T03:38:46.486Z,15.71
2018-06-18T03:41:16.263Z,15.62
2018-06-18T03:43:53.844Z,15.48
2018-06-18T03:46:23.739Z,15.42
2018-06-18T03:48:53.921Z,15.39
2018-06-18T03:51:23.711Z,15.44
2018-06-18T03:53:55.548Z,15.58
2018-06-18T03:56:26.567Z,15.67
2018-06-18T03:58:57.338Z,15.73
2018-06-18T04:01:45.018Z,15.74
2018-06-18T04:04:20.124Z,15.73
2018-06-18T04:06:55.079Z,15.74
2018-06-18T04:09:30.843Z,15.78
2018-06-18T04:12:07.556Z,15.91
2018-06-18T04:14:37.987Z,15.95
2018-06-18T04:17:08.547Z,16.01
2018-06-18T04:19:38.348Z,16.06
2018-06-18T04:22:08.240Z,16.15
2018-06-18T04:24:38.038Z,16.28
2018-06-18T04:27:07.766Z,16.34
2018-06-18T04:29:37.932Z,16.45
2018-06-18T04:32:07.819Z,16.48
2018-06-18T04:34:47.016Z,16.47
2018-06-18T04:37:16.836Z,16.43
2018-06-18T04:39:46.604Z,16.37
2018-06-18T04:42:21.528Z,16.42
2018-06-18T04:44:56.404Z,16.47
2018-06-18T04:47:31.194Z,16.53
2018-06-18T04:50:06.096Z,16.56
2018-06-18T04:52:36.194Z,16.60
2018-06-18T04:55:06.007Z,16.74
2018-06-18T04:57:35.746Z,16.79
2018-06-18T05:00:43.374Z,16.90
2018-06-18T05:03:13.254Z,16.88
2018-06-18T05:05:43.032Z,16.95
2018-06-18T05:09:41.067Z,17.01
2018-06-18T05:12:11.108Z,17.16
2018-06-18T05:14:40.868Z,17.24
2018-06-18T05:17:10.717Z,17.44
2018-06-18T05:19:40.484Z,17.62
2018-06-18T05:22:10.373Z,17.84
2018-06-18T05:24:40.256Z,18.14
2018-06-18T05:27:13.976Z,18.28
2018-06-18T05:29:43.853Z,18.42
2018-06-18T05:32:13.703Z,18.57
2018-06-18T05:34:43.493Z,18.70
2018-06-18T05:37:18.328Z,18.79
2018-06-18T05:39:48.140Z,18.91
2018-06-18T05:42:17.842Z,19.00
2018-06-18T05:44:47.589Z,19.03
2018-06-18T05:47:17.284Z,19.10
2018-06-18T05:49:47.053Z,19.19
2018-06-18T05:52:16.871Z,19.26
2018-06-18T05:54:46.592Z,19.29
2018-06-18T05:57:16.473Z,19.35
2018-06-18T05:59:46.195Z,19.41
2018-06-18T06:02:16.262Z,19.47
2018-06-18T06:04:46.080Z,19.47
2018-06-18T06:07:15.985Z,19.53
2018-06-18T06:09:45.812Z,19.48
2018-06-18T06:12:15.892Z,19.57
2018-06-18T06:14:45.745Z,19.74
2018-06-18T06:17:15.588Z,19.76
2018-06-18T06:19:45.570Z,20.09
2018-06-18T06:22:15.346Z,20.06
2018-06-18T06:24:45.064Z,20.52
2018-06-18T06:27:14.805Z,21.01
2018-06-18T06:29:45.436Z,21.90
2018-06-18T06:32:15.364Z,23.01
2018-06-18T06:34:53.107Z,23.69
2018-06-18T06:37:22.856Z,23.59
2018-06-18T06:39:52.731Z,23.42
2018-06-18T06:42:22.523Z,22.73
2018-06-18T06:44:52.430Z,22.70
2018-06-18T06:47:22.268Z,22.67
2018-06-18T06:49:52.051Z,22.50
2018-06-18T06:52:21.859Z,22.35
2018-06-18T06:54:51.705Z,22.26
2018-06-18T06:57:21.525Z,22.11
2018-06-18T06:59:51.309Z,22.22
2018-06-18T07:02:21.103Z,22.29
2018-06-18T07:04:50.959Z,22.20
2018-06-18T07:07:20.759Z,22.42
2018-06-18T07:09:50.600Z,23.01
2018-06-18T07:12:20.349Z,23.14
2018-06-18T07:14:50.135Z,23.43
2018-06-18T07:17:19.921Z,23.45
2018-06-18T07:19:49.747Z,23.58
2018-06-18T07:22:19.519Z,24.14
2018-06-18T07:24:49.331Z,24.24
2018-06-18T07:27:19.083Z,24.34
2018-06-18T07:29:48.857Z,24.37
2018-06-18T07:32:18.607Z,24.44
2018-06-18T07:34:47.971Z,24.69
2018-06-18T07:37:17.724Z,24.66
2018-06-18T07:39:47.514Z,24.49
2018-06-18T07:42:17.362Z,24.54
2018-06-18T07:44:47.356Z,24.28
2018-06-18T07:47:17.090Z,24.11
2018-06-18T07:49:46.883Z,23.79
2018-06-18T07:52:16.670Z,23.04
2018-06-18T07:54:46.419Z,22.79
2018-06-18T07:57:16.428Z,22.77
2018-06-18T07:59:46.134Z,22.79
2018-06-18T08:02:15.948Z,22.86
2018-06-18T08:04:45.676Z,22.85
2018-06-18T08:07:15.539Z,23.05
2018-06-18T08:09:45.335Z,23.13
2018-06-18T08:12:15.174Z,23.20
2018-06-18T08:14:44.967Z,23.61
2018-06-18T08:17:14.789Z,23.82
2018-06-18T08:19:44.471Z,24.04
2018-06-18T08:22:14.183Z,24.57
2018-06-18T08:24:43.981Z,24.83
2018-06-18T08:27:13.843Z,24.88
2018-06-18T08:29:43.611Z,24.82
2018-06-18T08:32:13.395Z,24.91
2018-06-18T08:34:43.295Z,25.48
2018-06-18T08:37:13.231Z,25.85
2018-06-18T08:39:43.167Z,25.17
2018-06-18T08:42:13.143Z,25.02
2018-06-18T08:44:42.867Z,25.18
2018-06-18T08:47:13.007Z,25.52
2018-06-18T08:49:47.836Z,25.30
2018-06-18T08:52:24.524Z,25.02
2018-06-18T08:54:59.477Z,25.07
2018-06-18T08:57:34.269Z,25.15
2018-06-18T09:00:09.113Z,25.12
2018-06-18T09:02:42.979Z,25.13
2018-06-18T09:05:13.352Z,25.27
2018-06-18T09:07:48.259Z,25.89
2018-06-18T09:10:18.101Z,25.73
2018-06-18T09:12:47.903Z,25.64
2018-06-18T09:15:17.785Z,25.95
2018-06-18T09:17:47.122Z,26.20
2018-06-18T09:20:17.047Z,26.31
2018-06-18T09:22:46.893Z,26.78
2018-06-18T09:25:16.756Z,26.77
2018-06-18T09:27:46.660Z,26.14
2018-06-18T09:30:16.482Z,25.36
2018-06-18T09:32:46.299Z,24.68
2018-06-18T09:35:16.140Z,24.50
2018-06-18T09:37:46.000Z,24.64
2018-06-18T09:40:15.869Z,24.73
2018-06-18T09:42:45.677Z,25.03
2018-06-18T09:45:15.545Z,25.05
2018-06-18T09:47:45.370Z,25.34
2018-06-18T09:50:20.180Z,25.34
2018-06-18T09:52:55.109Z,25.42
2018-06-18T09:55:30.139Z,25.28
2018-06-18T09:58:05.089Z,24.93
2018-06-18T10:00:54.307Z,25.09
2018-06-18T10:03:24.120Z,24.95
2018-06-18T10:05:53.950Z,24.93
2018-06-18T10:08:23.817Z,24.98
2018-06-18T10:10:53.743Z,25.10
2018-06-18T10:13:23.830Z,25.18
2018-06-18T10:15:53.750Z,25.23
2018-06-18T10:18:23.560Z,25.33
2018-06-18T10:20:53.342Z,25.72
2018-06-18T10:23:23.128Z,26.35
2018-06-18T10:25:52.962Z,26.64
2018-06-18T10:28:22.774Z,26.76
2018-06-18T10:30:52.616Z,27.23
2018-06-18T10:33:27.440Z,28.15
2018-06-18T10:36:02.367Z,27.79
2018-06-18T10:38:37.238Z,27.85
2018-06-18T10:41:12.230Z,27.75
2018-06-18T10:43:42.121Z,27.95
2018-06-18T10:46:11.934Z,27.51
2018-06-18T10:48:41.762Z,27.38
2018-06-18T10:51:11.596Z,27.76
2018-06-18T10:53:41.795Z,28.31
2018-06-18T10:56:11.501Z,29.01
2018-06-18T10:58:41.359Z,29.12
2018-06-18T11:01:21.385Z,29.32
2018-06-18T11:03:52.401Z,29.30
2018-06-18T11:06:27.162Z,28.89
2018-06-18T11:08:57.033Z,28.93
2018-06-18T11:11:27.285Z,28.60
2018-06-18T11:13:56.993Z,28.57
2018-06-18T11:16:27.013Z,28.47
2018-06-18T11:19:01.765Z,27.63
2018-06-18T11:21:36.696Z,28.22
2018-06-18T11:24:11.729Z,28.48
2018-06-18T11:26:46.467Z,29.57
2018-06-18T11:29:16.401Z,30.37
2018-06-18T11:31:46.732Z,28.97
2018-06-18T11:34:17.315Z,29.19
2018-06-18T11:36:47.389Z,29.45
2018-06-18T11:39:17.135Z,29.66
2018-06-18T11:41:46.968Z,28.92
2018-06-18T11:44:16.956Z,29.90
2018-06-18T11:46:46.953Z,30.09
2018-06-18T11:49:16.940Z,29.52
2018-06-18T11:51:46.793Z,28.85
2018-06-18T11:54:16.654Z,28.52
2018-06-18T11:56:47.147Z,27.72
2018-06-18T11:59:21.898Z,26.78
2018-06-18T12:01:57.379Z,26.71
2018-06-18T12:04:32.802Z,26.62
2018-06-18T12:07:08.464Z,26.65
2018-06-18T12:09:41.311Z,26.55
2018-06-18T12:12:12.177Z,26.61
2018-06-18T12:14:42.141Z,26.23
2018-06-18T12:17:12.026Z,25.71
2018-06-18T12:19:41.937Z,25.52
2018-06-18T12:22:11.811Z,25.82
2018-06-18T12:24:41.585Z,26.02
2018-06-18T12:27:16.102Z,25.42
2018-06-18T12:29:45.914Z,24.87
2018-06-18T12:32:15.764Z,25.53
2018-06-18T12:34:45.551Z,25.51
2018-06-18T12:37:15.328Z,25.39
2018-06-18T12:39:46.873Z,24.96
2018-06-18T12:42:16.885Z,24.89
2018-06-18T12:45:50.317Z,24.83
2018-06-18T12:48:25.092Z,24.83
2018-06-18T12:50:59.835Z,24.75
2018-06-18T12:53:34.758Z,24.60
2018-06-18T12:56:09.680Z,24.55
2018-06-18T12:58:39.497Z,24.50
2018-06-18T13:01:11.777Z,24.92
2018-06-18T13:03:41.879Z,25.05
2018-06-18T13:06:11.769Z,25.09
2018-06-18T13:08:41.773Z,25.14
2018-06-18T13:11:12.404Z,25.38
2018-06-18T13:13:42.704Z,25.47
2018-06-18T13:16:12.485Z,25.51
2018-06-18T13:18:42.333Z,25.32
2018-06-18T13:21:12.229Z,25.42
2018-06-18T13:23:42.009Z,25.78
2018-06-18T13:26:12.151Z,25.71
2018-06-18T13:28:42.388Z,25.98
2018-06-18T13:31:13.267Z,26.05
2018-06-18T13:33:44.125Z,25.95
2018-06-18T13:36:15.007Z,26.30
2018-06-18T13:38:49.858Z,26.07
2018-06-18T13:41:24.720Z,26.68
2018-06-18T13:43:59.528Z,26.52
2018-06-18T13:46:34.531Z,26.98
2018-06-18T13:49:03.960Z,27.57
2018-06-18T13:51:33.838Z,27.91
2018-06-18T13:54:07.465Z,28.13
2018-06-18T13:56:37.219Z,27.68
2018-06-18T13:59:07.005Z,27.16
2018-06-18T14:01:36.802Z,26.94
2018-06-18T14:04:06.836Z,26.73
2018-06-18T14:06:36.619Z,26.49
2018-06-18T14:09:08.459Z,26.56
2018-06-18T14:11:38.263Z,26.99
2018-06-18T14:14:08.006Z,27.23
2018-06-18T14:16:38.925Z,27.27
2018-06-18T14:19:14.356Z,27.24
2018-06-18T14:21:44.228Z,26.89
2018-06-18T14:24:14.334Z,26.81
2018-06-18T14:26:44.757Z,27.06
2018-06-18T14:29:19.640Z,27.65
2018-06-18T14:31:54.408Z,27.95
2018-06-18T14:34:29.533Z,28.20
2018-06-18T14:37:04.599Z,27.89
2018-06-18T14:39:39.473Z,28.25
2018-06-18T14:42:09.951Z,28.64
2018-06-18T14:44:39.751Z,28.38
2018-06-18T14:47:09.500Z,28.22
2018-06-18T14:49:39.309Z,27.88
2018-06-18T14:52:09.015Z,27.53
2018-06-18T14:54:39.273Z,27.51
2018-06-18T14:57:09.994Z,27.00
2018-06-18T14:59:51.352Z,26.40
2018-06-18T15:02:21.576Z,26.16
2018-06-18T15:04:52.336Z,26.17
2018-06-18T15:07:22.318Z,26.29
2018-06-18T15:09:53.518Z,26.05
2018-06-18T15:12:25.991Z,26.29
2018-06-18T15:15:00.872Z,26.39
2018-06-18T15:17:30.999Z,26.73
2018-06-18T15:20:00.863Z,27.00
2018-06-18T15:22:32.790Z,26.99
2018-06-18T15:25:08.172Z,26.87
2018-06-18T15:27:37.999Z,26.61
2018-06-18T15:30:08.414Z,26.24
2018-06-18T15:32:38.211Z,25.67
2018-06-18T15:35:08.119Z,25.48
2018-06-18T15:37:37.654Z,25.16
2018-06-18T15:40:07.798Z,25.08
2018-06-18T15:42:37.766Z,24.97
2018-06-18T15:45:07.863Z,25.01
2018-06-18T15:47:37.718Z,24.99
2018-06-18T15:50:07.555Z,25.02
2018-06-18T15:52:38.241Z,24.76
2018-06-18T15:55:08.242Z,24.78
2018-06-18T15:57:38.070Z,24.75
2018-06-18T16:00:08.724Z,24.87
2018-06-18T16:02:38.762Z,25.03
2018-06-18T16:05:09.458Z,25.16
2018-06-18T16:07:39.283Z,25.04
2018-06-18T16:10:09.056Z,25.27
2018-06-18T16:12:40.625Z,25.37
2018-06-18T16:15:11.510Z,25.40
2018-06-18T16:17:42.223Z,25.48
2018-06-18T16:20:12.071Z,25.87
2018-06-18T16:22:42.345Z,26.03
2018-06-18T16:25:15.111Z,25.92
2018-06-18T16:27:44.857Z,25.81
2018-06-18T16:30:14.737Z,25.65
2018-06-18T16:32:44.598Z,25.82
2018-06-18T16:35:16.676Z,26.51
2018-06-18T16:37:47.414Z,26.79
2018-06-18T16:40:17.266Z,26.81
2018-06-18T16:42:49.558Z,26.81
2018-06-18T16:45:19.655Z,26.67
2018-06-18T16:47:49.585Z,26.69
2018-06-18T16:50:19.426Z,26.55
2018-06-18T16:52:49.762Z,26.25
2018-06-18T16:55:19.580Z,26.10
2018-06-18T16:57:49.474Z,25.98
2018-06-18T17:00:19.247Z,25.85
2018-06-18T17:02:49.177Z,25.60
2018-06-18T17:05:19.999Z,25.41
2018-06-18T17:07:49.966Z,25.45
2018-06-18T17:10:19.828Z,25.37
2018-06-18T17:12:49.870Z,25.16
2018-06-18T17:15:20.568Z,24.92
2018-06-18T17:17:50.968Z,24.71
2018-06-18T17:20:21.537Z,24.60
2018-06-18T17:22:52.804Z,24.56
2018-06-18T17:25:22.672Z,24.41
2018-06-18T17:27:52.813Z,24.42
2018-06-18T17:30:23.284Z,24.35
2018-06-18T17:32:53.774Z,24.28
2018-06-18T17:35:23.732Z,24.26
2018-06-18T17:37:55.272Z,24.24
2018-06-18T17:40:25.054Z,24.24
2018-06-18T17:42:54.855Z,24.20
2018-06-18T17:45:26.723Z,24.25
2018-06-18T17:47:58.682Z,24.02
2018-06-18T17:50:29.219Z,24.05
2018-06-18T17:52:58.995Z,24.24
2018-06-18T17:55:29.750Z,24.38
2018-06-18T17:58:01.535Z,24.39
2018-06-18T18:00:31.360Z,24.50
2018-06-18T18:03:01.401Z,24.51
2018-06-18T18:05:31.475Z,24.53
2018-06-18T18:08:02.098Z,24.29
2018-06-18T18:10:32.183Z,24.18
2018-06-18T18:13:05.681Z,24.03
2018-06-18T18:15:35.519Z,23.85
2018-06-18T18:18:05.862Z,23.70
2018-06-18T18:20:35.866Z,23.52
2018-06-18T18:23:05.734Z,23.28
2018-06-18T18:25:36.210Z,23.24
2018-06-18T18:28:06.787Z,23.19
2018-06-18T18:30:36.679Z,23.10
2018-06-18T18:33:06.689Z,22.94
2018-06-18T18:35:36.547Z,22.81
2018-06-18T18:38:06.640Z,22.72
2018-06-18T18:40:37.177Z,22.66
2018-06-18T18:43:07.448Z,22.58
2018-06-18T18:45:37.832Z,22.47
2018-06-18T18:48:08.202Z,22.36
2018-06-18T18:50:38.514Z,22.22
2018-06-18T18:53:09.427Z,22.09
2018-06-18T18:56:00.330Z,21.98
2018-06-18T18:59:41.811Z,21.84
2018-06-18T19:02:12.305Z,21.66
2018-06-18T19:04:51.279Z,21.52
2018-06-18T19:07:28.101Z,21.40
2018-06-18T19:10:26.312Z,21.28
2018-06-18T19:12:59.316Z,21.18
2018-06-18T19:15:28.830Z,21.12
2018-06-18T19:17:58.669Z,21.06
2018-06-18T19:20:36.639Z,20.99
2018-06-18T19:23:06.402Z,20.92
2018-06-18T19:25:36.385Z,20.87
2018-06-18T19:28:06.212Z,20.83
2018-06-18T19:30:38.271Z,20.80
2018-06-18T19:33:18.603Z,20.78
2018-06-18T19:35:48.418Z,20.77
2018-06-18T19:38:17.863Z,20.80
2018-06-18T19:40:47.743Z,20.79
2018-06-18T19:43:17.603Z,20.76
2018-06-18T19:45:52.842Z,20.78
2018-06-18T19:48:28.690Z,20.76
2018-06-18T19:50:58.538Z,20.75
2018-06-18T19:53:28.479Z,20.72
2018-06-18T19:55:58.304Z,20.64
2018-06-18T19:58:28.233Z,20.59
2018-06-18T20:01:02.357Z,20.53
2018-06-18T20:03:33.193Z,20.47
2018-06-18T20:06:03.202Z,20.44
2018-06-18T20:08:33.290Z,20.44
2018-06-18T20:11:03.456Z,20.46
2018-06-18T20:13:33.277Z,20.48
2018-06-18T20:16:03.525Z,20.46
2018-06-18T20:18:33.565Z,20.51
2018-06-18T20:21:03.447Z,20.51
2018-06-18T20:23:33.904Z,20.53
2018-06-18T20:26:10.608Z,20.56
2018-06-18T20:28:40.457Z,20.60
2018-06-18T20:31:10.452Z,20.55
2018-06-18T20:33:46.899Z,20.55
2018-06-18T20:36:19.729Z,20.55
2018-06-18T20:38:49.721Z,20.56
2018-06-18T20:41:19.503Z,20.56
2018-06-18T20:44:05.921Z,20.54
2018-06-18T20:46:37.179Z,20.55
2018-06-18T20:49:09.358Z,20.54
2018-06-18T20:51:39.613Z,20.53
2018-06-18T20:54:10.298Z,20.51
2018-06-18T20:56:40.239Z,20.51
2018-06-18T20:59:12.645Z,20.49
2018-06-18T21:01:42.507Z,20.48
2018-06-18T21:04:12.414Z,20.49
2018-06-18T21:06:42.304Z,20.47
2018-06-18T21:09:12.560Z,20.47
2018-06-18T21:11:42.458Z,20.48
2018-06-18T21:14:12.681Z,20.49
2018-06-18T21:16:45.961Z,20.48
2018-06-18T21:19:15.764Z,20.46
2018-06-18T21:21:45.629Z,20.47
2018-06-18T21:24:15.435Z,20.45
2018-06-18T21:26:45.431Z,20.42
2018-06-18T21:29:15.387Z,20.40
2018-06-18T21:31:45.457Z,20.39
2018-06-18T21:34:16.456Z,20.38
2018-06-18T21:36:46.316Z,20.38
2018-06-18T21:39:16.151Z,20.38
2018-06-18T21:41:47.190Z,20.37
2018-06-18T21:45:26.079Z,20.42
2018-06-18T21:47:57.704Z,20.37
2018-06-18T21:50:27.573Z,20.33
2018-06-18T21:52:57.432Z,20.30
2018-06-18T21:55:27.348Z,20.27
2018-06-18T21:57:57.136Z,20.26
2018-06-18T22:00:33.044Z,20.27
2018-06-18T22:03:02.904Z,20.22
2018-06-18T22:05:32.848Z,20.19
2018-06-18T22:08:04.140Z,20.17
2018-06-18T22:10:34.835Z,20.16
2018-06-18T22:13:04.768Z,20.13
2018-06-18T22:15:34.694Z,20.10
2018-06-18T22:18:04.814Z,20.04
2018-06-18T22:20:34.827Z,20.02
2018-06-18T22:23:05.002Z,20.00
2018-06-18T22:25:34.907Z,19.96
2018-06-18T22:28:08.863Z,19.93
2018-06-18T22:30:38.702Z,19.90
2018-06-18T22:33:08.779Z,19.89
2018-06-18T22:35:38.572Z,19.89
2018-06-18T22:38:08.465Z,19.85
2018-06-18T22:40:38.240Z,19.82
2018-06-18T22:43:07.974Z,19.78
2018-06-18T22:45:37.784Z,19.73
2018-06-18T22:48:07.668Z,19.73
2018-06-18T22:50:37.485Z,19.72
2018-06-18T22:53:07.280Z,19.68
2018-06-18T22:55:37.124Z,19.67
2018-06-18T22:58:06.855Z,19.67
2018-06-18T23:00:36.719Z,19.58
2018-06-18T23:03:06.609Z,19.51
2018-06-18T23:05:36.491Z,19.46
2018-06-18T23:08:06.405Z,19.39
2018-06-18T23:10:36.191Z,19.33
2018-06-18T23:13:06.283Z,19.26
2018-06-18T23:15:36.144Z,19.15
2018-06-18T23:18:06.091Z,19.07
2018-06-18T23:20:35.927Z,19.02
2018-06-18T23:23:05.751Z,18.93
2018-06-18T23:25:35.588Z,18.80
2018-06-18T23:28:05.393Z,18.63
2018-06-18T23:30:35.191Z,18.52
2018-06-18T23:33:05.071Z,18.41
2018-06-18T23:35:34.889Z,18.30
2018-06-18T23:38:04.840Z,18.20
2018-06-18T23:40:34.630Z,18.16
2018-06-18T23:43:04.413Z,18.05
2018-06-18T23:45:35.245Z,17.92
2018-06-18T23:48:05.150Z,17.84
2018-06-18T23:50:35.069Z,17.76
2018-06-18T23:53:04.965Z,17.73
2018-06-18T23:55:34.771Z,17.67
2018-06-18T23:58:04.581Z,17.60
